Aeroporto :







RITROVATECI SU...

 
LOGIN :

Iscrizione | Disclaimer

   EN    FR    IT 

 









Sommario :    VFR   VFR Marginale   IFR   IFR Intensivo   IFR Molto Intensivo
Visibilità : 
Base nubi : 
>= 8 km
>= 3000ft
5 / 8 km
1000 / 3000 ft
1500m / 5 km
500 / 1000 ft
800 / 1500m
200 / 500 ft
< 800m
< 200 ft
Simboli :   Temporali  Nebbia  Neve Forte  Precipitazioni Forti  Vento > 20 kt







- Altitudine del aeroporto : 1442 ft
- Codice IATA : ZUM


CZUM - Churchill Falls

ULTIMO METAR :
  • 170600Z AUTO 15005KT 9SM SCT090 BKN110 OVC130 18/13 A2956 RMK SLP013 DENSITY ALT 2500FT

METARs OBSOLETI :
  • 170500Z AUTO 14004KT 9SM OVC090 18/14 A2959 RMK SLP022 DENSITY ALT 2500FT
  • 170400Z AUTO 14004KT 9SM OVC095 18/14 A2962 RMK SLP032 DENSITY ALT 2400FT

TAF TAF CZUM
Valido dal 17 a 02 ore il 17 a 14 ore UTC


170138Z 1702/1714 19006KT P6SM BKN120
TEMPO 1702/1712 5SM -SHRA BR BKN050 OVC100
FM171200 20012KT P6SM OVC025
TEMPO 1712/1714 5SM -SHRA BR OVC020
BECMG 1712/1714 25015G25KT RMK FCST BASED ON AUTO OBS. NXT FCST BY 170800Z
FIR CZQX / America del Nord



MetMap, La meteo Aeronautica in un colpo d'occhio ! - Copyright ORBIFLY Dicembre 2007 - Disclaimer

ORBIFLY MET'MAP TEAM :

Programmazione e sviluppo : Alexandra Zaïnal
Concezione e sviluppo : Baudouin d'Aumeries
Co-Programmazione e sviluppo : Marc-Olivier Méhu
Supporto tecnico e logistico : Manuel Goepfert
Aiuto per la traduzione : Arnaldo La Scala

Contatto : metmap@orbifly.com




FONTI E CREDITI :

   NOAA